sensor_id;sensor_type;location;lat;lon;timestamp;pressure;altitude;pressure_sealevel;temperature;humidity
68871;BME280;55906;52.278;6.808;2023-08-24T00:01:12;101715.28;;;19.84;72.92
68871;BME280;55906;52.278;6.808;2023-08-24T00:03:41;101717.06;;;19.85;72.39
68871;BME280;55906;52.278;6.808;2023-08-24T00:06:07;101708.16;;;19.79;73.08
68871;BME280;55906;52.278;6.808;2023-08-24T00:08:34;101704.59;;;19.79;72.99
68871;BME280;55906;52.278;6.808;2023-08-24T00:11:01;101698.34;;;19.75;73.02
68871;BME280;55906;52.278;6.808;2023-08-24T00:13:28;101703.69;;;19.72;73.05
68871;BME280;55906;52.278;6.808;2023-08-24T00:15:55;101708.16;;;19.70;73.25
68871;BME280;55906;52.278;6.808;2023-08-24T00:18:22;101699.25;;;19.70;73.61
68871;BME280;55906;52.278;6.808;2023-08-24T00:20:51;101694.78;;;19.69;73.32
68871;BME280;55906;52.278;6.808;2023-08-24T00:23:17;101699.22;;;19.65;73.22
68871;BME280;55906;52.278;6.808;2023-08-24T00:25:44;101695.66;;;19.60;73.28
68871;BME280;55906;52.278;6.808;2023-08-24T00:28:11;101702.78;;;19.55;73.74
68871;BME280;55906;52.278;6.808;2023-08-24T00:30:38;101701.00;;;19.53;74.07
68871;BME280;55906;52.278;6.808;2023-08-24T00:33:04;101689.34;;;19.49;73.90
68871;BME280;55906;52.278;6.808;2023-08-24T00:35:31;101688.44;;;19.45;74.13
68871;BME280;55906;52.278;6.808;2023-08-24T00:37:59;101684.88;;;19.42;74.42
68871;BME280;55906;52.278;6.808;2023-08-24T00:40:26;101675.97;;;19.38;74.49
68871;BME280;55906;52.278;6.808;2023-08-24T00:42:53;101670.63;;;19.35;74.49
68871;BME280;55906;52.278;6.808;2023-08-24T00:45:20;101660.84;;;19.34;74.49
68871;BME280;55906;52.278;6.808;2023-08-24T00:47:47;101664.41;;;19.33;74.42
68871;BME280;55906;52.278;6.808;2023-08-24T00:50:16;101665.28;;;19.32;74.89
68871;BME280;55906;52.278;6.808;2023-08-24T00:52:44;101663.50;;;19.30;74.52
68871;BME280;55906;52.278;6.808;2023-08-24T00:55:13;101667.94;;;19.25;74.79
68871;BME280;55906;52.278;6.808;2023-08-24T00:57:40;101665.25;;;19.20;75.28
68871;BME280;55906;52.278;6.808;2023-08-24T01:00:08;101673.25;;;19.17;75.22
68871;BME280;55906;52.278;6.808;2023-08-24T01:02:35;101673.22;;;19.15;75.41
68871;BME280;55906;52.278;6.808;2023-08-24T01:05:03;101674.13;;;19.17;75.19
68871;BME280;55906;52.278;6.808;2023-08-24T01:07:30;101658.13;;;19.16;75.06
68871;BME280;55906;52.278;6.808;2023-08-24T01:09:58;101655.44;;;19.16;75.74
68871;BME280;55906;52.278;6.808;2023-08-24T01:12:33;101661.66;;;19.13;76.33
68871;BME280;55906;52.278;6.808;2023-08-24T01:15:07;101678.53;;;19.06;75.69
68871;BME280;55906;52.278;6.808;2023-08-24T01:17:36;101686.50;;;19.02;76.03
68871;BME280;55906;52.278;6.808;2023-08-24T01:20:06;101686.50;;;19.02;76.16
68871;BME280;55906;52.278;6.808;2023-08-24T01:22:41;101674.06;;;19.02;76.65
68871;BME280;55906;52.278;6.808;2023-08-24T01:25:14;101667.84;;;19.02;75.96
68871;BME280;55906;52.278;6.808;2023-08-24T01:27:44;101653.63;;;19.01;76.19
68871;BME280;55906;52.278;6.808;2023-08-24T01:30:12;101647.41;;;19.01;76.15
68871;BME280;55906;52.278;6.808;2023-08-24T01:32:39;101631.38;;;18.96;76.20
68871;BME280;55906;52.278;6.808;2023-08-24T01:35:07;101638.50;;;18.99;75.80
68871;BME280;55906;52.278;6.808;2023-08-24T01:37:35;101637.59;;;18.95;76.02
68871;BME280;55906;52.278;6.808;2023-08-24T01:40:05;101650.94;;;18.97;76.48
68871;BME280;55906;52.278;6.808;2023-08-24T01:42:36;101647.38;;;18.95;76.57
68871;BME280;55906;52.278;6.808;2023-08-24T01:45:07;101648.25;;;18.95;76.71
68871;BME280;55906;52.278;6.808;2023-08-24T01:47:35;101636.72;;;18.96;76.17
68871;BME280;55906;52.278;6.808;2023-08-24T01:50:04;101632.25;;;18.95;76.22
68871;BME280;55906;52.278;6.808;2023-08-24T01:52:31;101630.47;;;18.96;76.53
68871;BME280;55906;52.278;6.808;2023-08-24T01:54:59;101622.47;;;18.96;76.40
68871;BME280;55906;52.278;6.808;2023-08-24T01:57:26;101624.28;;;18.98;76.11
68871;BME280;55906;52.278;6.808;2023-08-24T01:59:52;101626.06;;;18.99;76.28
68871;BME280;55906;52.278;6.808;2023-08-24T02:02:21;101629.59;;;18.98;76.17
68871;BME280;55906;52.278;6.808;2023-08-24T02:04:48;101625.16;;;18.96;76.27
68871;BME280;55906;52.278;6.808;2023-08-24T02:07:14;101633.16;;;18.96;76.16
68871;BME280;55906;52.278;6.808;2023-08-24T02:09:41;101627.81;;;18.93;76.46
68871;BME280;55906;52.278;6.808;2023-08-24T02:12:08;101627.78;;;18.88;76.31
68871;BME280;55906;52.278;6.808;2023-08-24T02:14:35;101626.91;;;18.88;76.54
68871;BME280;55906;52.278;6.808;2023-08-24T02:17:02;101618.91;;;18.91;76.55
68871;BME280;55906;52.278;6.808;2023-08-24T02:19:30;101623.38;;;18.93;76.19
68871;BME280;55906;52.278;6.808;2023-08-24T02:21:57;101616.25;;;18.94;76.20
68871;BME280;55906;52.278;6.808;2023-08-24T02:24:24;101605.59;;;18.94;76.21
68871;BME280;55906;52.278;6.808;2023-08-24T02:26:51;101602.03;;;18.92;76.38
68871;BME280;55906;52.278;6.808;2023-08-24T02:29:17;101609.13;;;18.91;76.41
68871;BME280;55906;52.278;6.808;2023-08-24T02:31:44;101613.59;;;18.92;76.48
68871;BME280;55906;52.278;6.808;2023-08-24T02:34:11;101625.16;;;18.94;76.59
68871;BME280;55906;52.278;6.808;2023-08-24T02:36:39;101628.69;;;18.95;76.51
68871;BME280;55906;52.278;6.808;2023-08-24T02:39:06;101632.28;;;18.97;76.39
68871;BME280;55906;52.278;6.808;2023-08-24T02:41:33;101632.28;;;19.00;76.31
68871;BME280;55906;52.278;6.808;2023-08-24T02:44:00;101633.19;;;19.02;76.26
68871;BME280;55906;52.278;6.808;2023-08-24T02:46:27;101634.97;;;19.06;75.98
68871;BME280;55906;52.278;6.808;2023-08-24T02:48:54;101645.63;;;19.07;75.97
68871;BME280;55906;52.278;6.808;2023-08-24T02:51:21;101642.97;;;19.09;75.90
68871;BME280;55906;52.278;6.808;2023-08-24T02:53:50;101634.09;;;19.10;76.12
68871;BME280;55906;52.278;6.808;2023-08-24T02:56:17;101642.09;;;19.11;75.83
68871;BME280;55906;52.278;6.808;2023-08-24T02:58:43;101643.88;;;19.15;75.64
68871;BME280;55906;52.278;6.808;2023-08-24T03:01:10;101638.56;;;19.18;75.67
68871;BME280;55906;52.278;6.808;2023-08-24T03:03:37;101629.66;;;19.19;75.74
68871;BME280;55906;52.278;6.808;2023-08-24T03:06:06;101635.00;;;19.21;75.64
68871;BME280;55906;52.278;6.808;2023-08-24T03:08:33;101628.78;;;19.24;75.93
68871;BME280;55906;52.278;6.808;2023-08-24T03:11:02;101635.91;;;19.26;76.04
68871;BME280;55906;52.278;6.808;2023-08-24T03:13:30;101637.69;;;19.30;75.54
68871;BME280;55906;52.278;6.808;2023-08-24T03:15:57;101635.94;;;19.32;75.51
68871;BME280;55906;52.278;6.808;2023-08-24T03:18:24;101631.47;;;19.33;75.82
68871;BME280;55906;52.278;6.808;2023-08-24T03:20:50;101643.03;;;19.35;76.34
68871;BME280;55906;52.278;6.808;2023-08-24T03:23:17;101627.94;;;19.37;76.41
68871;BME280;55906;52.278;6.808;2023-08-24T03:25:44;101614.59;;;19.37;76.93
68871;BME280;55906;52.278;6.808;2023-08-24T03:28:12;101596.78;;;19.37;76.76
68871;BME280;55906;52.278;6.808;2023-08-24T03:30:47;101595.00;;;19.36;78.52
68871;BME280;55906;52.278;6.808;2023-08-24T03:33:14;101597.69;;;19.35;77.51
68871;BME280;55906;52.278;6.808;2023-08-24T03:35:42;101607.47;;;19.34;77.42
68871;BME280;55906;52.278;6.808;2023-08-24T03:38:09;101603.91;;;19.32;77.38
68871;BME280;55906;52.278;6.808;2023-08-24T03:40:36;101593.22;;;19.28;78.40
68871;BME280;55906;52.278;6.808;2023-08-24T03:43:03;101587.00;;;19.29;78.78
68871;BME280;55906;52.278;6.808;2023-08-24T03:45:31;101579.88;;;19.28;78.92
68871;BME280;55906;52.278;6.808;2023-08-24T03:47:58;101568.31;;;19.23;78.86
68871;BME280;55906;52.278;6.808;2023-08-24T03:50:25;101567.41;;;19.17;79.18
68871;BME280;55906;52.278;6.808;2023-08-24T03:52:52;101561.19;;;19.11;79.76
68871;BME280;55906;52.278;6.808;2023-08-24T03:55:19;101547.84;;;19.08;79.56
68871;BME280;55906;52.278;6.808;2023-08-24T03:57:46;101548.72;;;19.04;80.22
68871;BME280;55906;52.278;6.808;2023-08-24T04:00:13;101542.50;;;19.00;80.21
68871;BME280;55906;52.278;6.808;2023-08-24T04:02:42;101546.94;;;19.00;80.23
68871;BME280;55906;52.278;6.808;2023-08-24T04:05:09;101551.38;;;18.96;80.46
68871;BME280;55906;52.278;6.808;2023-08-24T04:07:35;101554.03;;;18.96;80.59
68871;BME280;55906;52.278;6.808;2023-08-24T04:10:04;101559.38;;;18.98;80.38
68871;BME280;55906;52.278;6.808;2023-08-24T04:12:31;101574.47;;;18.94;80.77
68871;BME280;55906;52.278;6.808;2023-08-24T04:14:58;101578.91;;;18.92;80.73
68871;BME280;55906;52.278;6.808;2023-08-24T04:17:24;101579.78;;;18.88;81.21
68871;BME280;55906;52.278;6.808;2023-08-24T04:19:53;101569.13;;;18.86;81.16
68871;BME280;55906;52.278;6.808;2023-08-24T04:22:19;101571.78;;;18.82;81.60
68871;BME280;55906;52.278;6.808;2023-08-24T04:24:46;101569.09;;;18.79;81.66
68871;BME280;55906;52.278;6.808;2023-08-24T04:27:14;101557.53;;;18.77;81.66
68871;BME280;55906;52.278;6.808;2023-08-24T04:29:41;101551.31;;;18.76;81.80
68871;BME280;55906;52.278;6.808;2023-08-24T04:32:08;101553.97;;;18.73;81.62
68871;BME280;55906;52.278;6.808;2023-08-24T04:34:35;101542.41;;;18.70;81.73
68871;BME280;55906;52.278;6.808;2023-08-24T04:37:03;101542.38;;;18.65;82.11
68871;BME280;55906;52.278;6.808;2023-08-24T04:39:29;101546.84;;;18.66;82.20
68871;BME280;55906;52.278;6.808;2023-08-24T04:41:56;101539.75;;;18.68;82.13
68871;BME280;55906;52.278;6.808;2023-08-24T04:44:23;101539.72;;;18.65;82.95
68871;BME280;55906;52.278;6.808;2023-08-24T04:46:50;101533.44;;;18.59;82.73
68871;BME280;55906;52.278;6.808;2023-08-24T04:49:17;101544.09;;;18.55;83.03
68871;BME280;55906;52.278;6.808;2023-08-24T04:51:44;101551.19;;;18.53;82.96
68871;BME280;55906;52.278;6.808;2023-08-24T04:54:12;101545.88;;;18.53;83.37
68871;BME280;55906;52.278;6.808;2023-08-24T04:56:38;101536.09;;;18.51;83.17
68871;BME280;55906;52.278;6.808;2023-08-24T04:59:05;101534.31;;;18.51;83.23
68871;BME280;55906;52.278;6.808;2023-08-24T05:01:33;101541.41;;;18.49;83.13
68871;BME280;55906;52.278;6.808;2023-08-24T05:04:00;101548.50;;;18.46;83.29
68871;BME280;55906;52.278;6.808;2023-08-24T05:06:27;101554.72;;;18.43;83.31
68871;BME280;55906;52.278;6.808;2023-08-24T05:08:54;101552.03;;;18.43;83.23
68871;BME280;55906;52.278;6.808;2023-08-24T05:11:25;101552.03;;;18.42;83.73
68871;BME280;55906;52.278;6.808;2023-08-24T05:13:52;101566.22;;;18.39;83.58
68871;BME280;55906;52.278;6.808;2023-08-24T05:16:18;101559.13;;;18.40;83.66
68871;BME280;55906;52.278;6.808;2023-08-24T05:18:45;101556.47;;;18.41;83.58
68871;BME280;55906;52.278;6.808;2023-08-24T05:21:12;101553.81;;;18.43;83.85
68871;BME280;55906;52.278;6.808;2023-08-24T05:23:39;101545.81;;;18.44;84.10
68871;BME280;55906;52.278;6.808;2023-08-24T05:26:06;101544.94;;;18.47;83.78
68871;BME280;55906;52.278;6.808;2023-08-24T05:28:34;101549.41;;;18.49;83.73
68871;BME280;55906;52.278;6.808;2023-08-24T05:31:01;101552.06;;;18.51;83.81
68871;BME280;55906;52.278;6.808;2023-08-24T05:33:27;101547.66;;;18.54;83.91
68871;BME280;55906;52.278;6.808;2023-08-24T05:35:56;101549.44;;;18.59;83.74
68871;BME280;55906;52.278;6.808;2023-08-24T05:38:26;101544.16;;;18.63;83.79
68871;BME280;55906;52.278;6.808;2023-08-24T05:40:53;101551.28;;;18.69;83.91
68871;BME280;55906;52.278;6.808;2023-08-24T05:43:19;101543.31;;;18.75;83.83
68871;BME280;55906;52.278;6.808;2023-08-24T05:45:48;101543.31;;;18.79;84.15
68871;BME280;55906;52.278;6.808;2023-08-24T05:48:15;101538.91;;;18.84;84.30
68871;BME280;55906;52.278;6.808;2023-08-24T05:50:42;101543.34;;;18.92;84.11
68871;BME280;55906;52.278;6.808;2023-08-24T05:53:09;101535.38;;;18.93;83.99
68871;BME280;55906;52.278;6.808;2023-08-24T05:55:36;101533.59;;;18.98;84.28
68871;BME280;55906;52.278;6.808;2023-08-24T05:58:03;101525.59;;;19.03;84.04
68871;BME280;55906;52.278;6.808;2023-08-24T06:00:30;101521.16;;;19.08;83.94
68871;BME280;55906;52.278;6.808;2023-08-24T06:02:58;101522.06;;;19.13;84.25
68871;BME280;55906;52.278;6.808;2023-08-24T06:05:25;101519.41;;;19.19;83.70
68871;BME280;55906;52.278;6.808;2023-08-24T06:07:52;101513.19;;;19.26;83.67
68871;BME280;55906;52.278;6.808;2023-08-24T06:10:20;101509.63;;;19.33;83.60
68871;BME280;55906;52.278;6.808;2023-08-24T06:12:46;101505.16;;;19.43;83.39
68871;BME280;55906;52.278;6.808;2023-08-24T06:15:13;101500.75;;;19.51;83.44
68871;BME280;55906;52.278;6.808;2023-08-24T06:17:41;101500.78;;;19.62;83.07
68871;BME280;55906;52.278;6.808;2023-08-24T06:20:10;101503.44;;;19.69;82.68
68871;BME280;55906;52.278;6.808;2023-08-24T06:22:38;101503.44;;;19.77;83.07
68871;BME280;55906;52.278;6.808;2023-08-24T06:25:05;101503.41;;;19.86;83.28
68871;BME280;55906;52.278;6.808;2023-08-24T06:27:34;101498.94;;;19.96;82.27
68871;BME280;55906;52.278;6.808;2023-08-24T06:30:01;101501.56;;;20.05;82.07
68871;BME280;55906;52.278;6.808;2023-08-24T06:32:29;101492.66;;;20.13;81.29
68871;BME280;55906;52.278;6.808;2023-08-24T06:34:55;101488.16;;;20.22;81.32
68871;BME280;55906;52.278;6.808;2023-08-24T06:37:23;101478.31;;;20.33;81.29
68871;BME280;55906;52.278;6.808;2023-08-24T06:39:50;101479.19;;;20.38;81.07
68871;BME280;55906;52.278;6.808;2023-08-24T06:42:17;101472.94;;;20.47;81.37
68871;BME280;55906;52.278;6.808;2023-08-24T06:44:44;101464.84;;;20.59;80.75
68871;BME280;55906;52.278;6.808;2023-08-24T06:47:11;101463.84;;;20.75;80.50
68871;BME280;55906;52.278;6.808;2023-08-24T06:49:37;101467.34;;;20.89;79.83
68871;BME280;55906;52.278;6.808;2023-08-24T06:52:04;101471.69;;;21.05;79.40
68871;BME280;55906;52.278;6.808;2023-08-24T06:54:33;101461.75;;;21.26;79.19
68871;BME280;55906;52.278;6.808;2023-08-24T06:57:00;101453.59;;;21.39;78.78
68871;BME280;55906;52.278;6.808;2023-08-24T06:59:27;101443.66;;;21.51;78.83
68871;BME280;55906;52.278;6.808;2023-08-24T07:01:53;101432.00;;;21.56;78.48
68871;BME280;55906;52.278;6.808;2023-08-24T07:04:20;101435.47;;;21.66;77.66
68871;BME280;55906;52.278;6.808;2023-08-24T07:06:47;101438.19;;;21.64;78.00
68871;BME280;55906;52.278;6.808;2023-08-24T07:09:14;101432.78;;;21.67;77.47
68871;BME280;55906;52.278;6.808;2023-08-24T07:11:42;101430.03;;;21.73;77.19
68871;BME280;55906;52.278;6.808;2023-08-24T07:14:09;101429.94;;;21.83;76.98
68871;BME280;55906;52.278;6.808;2023-08-24T07:16:36;101427.09;;;21.95;76.45
68871;BME280;55906;52.278;6.808;2023-08-24T07:19:02;101428.75;;;22.13;76.08
68871;BME280;55906;52.278;6.808;2023-08-24T07:21:30;101427.69;;;22.24;76.34
68871;BME280;55906;52.278;6.808;2023-08-24T07:23:57;101432.00;;;22.36;75.72
68871;BME280;55906;52.278;6.808;2023-08-24T07:26:24;101426.56;;;22.41;75.19
68871;BME280;55906;52.278;6.808;2023-08-24T07:28:53;101431.75;;;22.54;74.43
68871;BME280;55906;52.278;6.808;2023-08-24T07:31:20;101420.03;;;22.60;74.18
68871;BME280;55906;52.278;6.808;2023-08-24T07:33:48;101423.53;;;22.65;73.56
68871;BME280;55906;52.278;6.808;2023-08-24T07:36:15;101431.38;;;22.82;73.36
68871;BME280;55906;52.278;6.808;2023-08-24T07:38:41;101429.41;;;22.91;73.01
68871;BME280;55906;52.278;6.808;2023-08-24T07:41:08;101421.13;;;23.05;72.24
68871;BME280;55906;52.278;6.808;2023-08-24T07:43:37;101428.03;;;23.21;71.69
68871;BME280;55906;52.278;6.808;2023-08-24T07:46:04;101423.31;;;23.34;71.50
68871;BME280;55906;52.278;6.808;2023-08-24T07:48:31;101416.94;;;23.40;70.37
68871;BME280;55906;52.278;6.808;2023-08-24T07:50:58;101417.63;;;23.55;70.44
68871;BME280;55906;52.278;6.808;2023-08-24T07:53:25;101414.75;;;23.65;70.04
68871;BME280;55906;52.278;6.808;2023-08-24T07:55:53;101421.69;;;23.76;69.78
68871;BME280;55906;52.278;6.808;2023-08-24T07:58:20;101420.50;;;23.91;68.81
68871;BME280;55906;52.278;6.808;2023-08-24T08:00:49;101413.91;;;24.06;68.50
68871;BME280;55906;52.278;6.808;2023-08-24T08:03:18;101404.53;;;24.25;68.39
68871;BME280;55906;52.278;6.808;2023-08-24T08:05:45;101408.78;;;24.37;67.77
68871;BME280;55906;52.278;6.808;2023-08-24T08:08:12;101424.78;;;24.43;66.58
68871;BME280;55906;52.278;6.808;2023-08-24T08:10:39;101429.91;;;24.55;66.97
68871;BME280;55906;52.278;6.808;2023-08-24T08:13:06;101411.66;;;24.68;65.11
68871;BME280;55906;52.278;6.808;2023-08-24T08:15:33;101407.84;;;24.78;65.12
68871;BME280;55906;52.278;6.808;2023-08-24T08:18:01;101405.75;;;24.91;64.76
68871;BME280;55906;52.278;6.808;2023-08-24T08:20:30;101410.91;;;25.01;64.72
68871;BME280;55906;52.278;6.808;2023-08-24T08:22:58;101415.13;;;25.11;64.28
68871;BME280;55906;52.278;6.808;2023-08-24T08:25:25;101416.78;;;25.17;63.38
68871;BME280;55906;52.278;6.808;2023-08-24T08:27:51;101412.25;;;25.19;62.69
68871;BME280;55906;52.278;6.808;2023-08-24T08:30:18;101406.13;;;25.46;62.20
68871;BME280;55906;52.278;6.808;2023-08-24T08:32:45;101400.69;;;25.80;61.19
68871;BME280;55906;52.278;6.808;2023-08-24T08:35:12;101400.53;;;26.18;60.51
68871;BME280;55906;52.278;6.808;2023-08-24T08:37:40;101415.63;;;26.54;60.93
68871;BME280;55906;52.278;6.808;2023-08-24T08:40:10;101410.16;;;26.84;59.03
68871;BME280;55906;52.278;6.808;2023-08-24T08:42:37;101395.44;;;27.20;58.58
68871;BME280;55906;52.278;6.808;2023-08-24T08:45:08;101390.81;;;27.75;56.81
68871;BME280;55906;52.278;6.808;2023-08-24T08:47:35;101393.28;;;28.29;57.25
68871;BME280;55906;52.278;6.808;2023-08-24T08:50:03;101394.03;;;28.78;54.36
68871;BME280;55906;52.278;6.808;2023-08-24T08:52:31;101382.16;;;29.24;53.98
68871;BME280;55906;52.278;6.808;2023-08-24T08:55:00;101376.34;;;29.54;52.89
68871;BME280;55906;52.278;6.808;2023-08-24T08:57:27;101371.56;;;30.00;53.05
68871;BME280;55906;52.278;6.808;2023-08-24T08:59:54;101379.59;;;30.21;48.60
68871;BME280;55906;52.278;6.808;2023-08-24T09:02:23;101382.97;;;30.45;49.74
68871;BME280;55906;52.278;6.808;2023-08-24T09:04:50;101373.03;;;30.82;48.09
68871;BME280;55906;52.278;6.808;2023-08-24T09:07:17;101356.34;;;31.07;48.78
68871;BME280;55906;52.278;6.808;2023-08-24T09:09:46;101356.34;;;31.26;48.29
68871;BME280;55906;52.278;6.808;2023-08-24T09:12:14;101362.06;;;31.54;47.08
68871;BME280;55906;52.278;6.808;2023-08-24T09:14:40;101355.75;;;31.54;46.70
68871;BME280;55906;52.278;6.808;2023-08-24T09:17:08;101350.84;;;31.77;45.42
68871;BME280;55906;52.278;6.808;2023-08-24T09:19:34;101350.44;;;32.01;44.39
68871;BME280;55906;52.278;6.808;2023-08-24T09:22:04;101341.88;;;32.24;44.05
68871;BME280;55906;52.278;6.808;2023-08-24T09:24:31;101333.09;;;32.35;43.69
68871;BME280;55906;52.278;6.808;2023-08-24T09:26:58;101343.38;;;32.45;42.76
68871;BME280;55906;52.278;6.808;2023-08-24T09:29:27;101336.34;;;32.41;42.58
68871;BME280;55906;52.278;6.808;2023-08-24T09:31:56;101330.63;;;32.46;42.18
68871;BME280;55906;52.278;6.808;2023-08-24T09:34:24;101319.00;;;32.74;42.61
68871;BME280;55906;52.278;6.808;2023-08-24T09:36:53;101312.66;;;32.89;42.31
68871;BME280;55906;52.278;6.808;2023-08-24T09:39:19;101319.31;;;32.99;42.12
68871;BME280;55906;52.278;6.808;2023-08-24T09:41:49;101318.91;;;32.91;41.04
68871;BME280;55906;52.278;6.808;2023-08-24T09:44:17;101316.81;;;33.11;40.84
68871;BME280;55906;52.278;6.808;2023-08-24T09:46:45;101314.00;;;33.12;38.76
68871;BME280;55906;52.278;6.808;2023-08-24T09:49:12;101300.72;;;33.36;39.47
68871;BME280;55906;52.278;6.808;2023-08-24T09:51:40;101296.25;;;33.49;39.44
68871;BME280;55906;52.278;6.808;2023-08-24T09:54:10;101282.38;;;33.81;39.67
68871;BME280;55906;52.278;6.808;2023-08-24T09:56:40;101274.22;;;34.09;38.81
68871;BME280;55906;52.278;6.808;2023-08-24T09:59:13;101261.53;;;34.62;38.64
68871;BME280;55906;52.278;6.808;2023-08-24T10:01:45;101261.19;;;34.93;37.80
68871;BME280;55906;52.278;6.808;2023-08-24T10:04:14;101252.16;;;35.31;36.92
68871;BME280;55906;52.278;6.808;2023-08-24T10:06:42;101248.13;;;35.49;37.41
68871;BME280;55906;52.278;6.808;2023-08-24T10:09:16;101246.41;;;35.98;36.07
68871;BME280;55906;52.278;6.808;2023-08-24T10:11:49;101235.31;;;36.36;35.35
68871;BME280;55906;52.278;6.808;2023-08-24T10:14:22;101238.81;;;36.38;35.35
68871;BME280;55906;52.278;6.808;2023-08-24T10:16:52;101237.88;;;36.26;34.42
68871;BME280;55906;52.278;6.808;2023-08-24T10:19:22;101232.53;;;36.48;31.30
68871;BME280;55906;52.278;6.808;2023-08-24T10:21:49;101228.25;;;36.68;31.97
68871;BME280;55906;52.278;6.808;2023-08-24T10:24:16;101224.59;;;36.57;31.18
68871;BME280;55906;52.278;6.808;2023-08-24T10:26:46;101221.34;;;36.87;32.59
68871;BME280;55906;52.278;6.808;2023-08-24T10:29:14;101220.13;;;37.02;31.82
68871;BME280;55906;52.278;6.808;2023-08-24T10:31:42;101216.19;;;37.28;30.80
68871;BME280;55906;52.278;6.808;2023-08-24T10:34:11;101219.94;;;37.38;31.00
68871;BME280;55906;52.278;6.808;2023-08-24T10:36:38;101209.47;;;37.32;31.77
68871;BME280;55906;52.278;6.808;2023-08-24T10:39:05;101207.38;;;36.78;31.72
68871;BME280;55906;52.278;6.808;2023-08-24T10:41:53;101205.38;;;36.80;30.96
68871;BME280;55906;52.278;6.808;2023-08-24T10:44:21;101218.72;;;36.50;31.91
68871;BME280;55906;52.278;6.808;2023-08-24T10:47:22;101208.78;;;36.36;31.29
68871;BME280;55906;52.278;6.808;2023-08-24T10:49:59;101198.69;;;36.61;31.24
68871;BME280;55906;52.278;6.808;2023-08-24T10:52:30;101200.81;;;36.68;30.67
68871;BME280;55906;52.278;6.808;2023-08-24T10:55:00;101199.25;;;36.77;30.34
68871;BME280;55906;52.278;6.808;2023-08-24T10:57:31;101192.22;;;37.19;30.23
68871;BME280;55906;52.278;6.808;2023-08-24T11:00:04;101179.25;;;37.55;30.37
68871;BME280;55906;52.278;6.808;2023-08-24T11:02:41;101173.19;;;38.05;29.68
68871;BME280;55906;52.278;6.808;2023-08-24T11:05:18;101163.91;;;38.50;27.12
68871;BME280;55906;52.278;6.808;2023-08-24T11:07:56;101152.97;;;38.80;25.91
68871;BME280;55906;52.278;6.808;2023-08-24T11:10:25;101141.78;;;38.72;26.76
68871;BME280;55906;52.278;6.808;2023-08-24T11:13:04;101128.06;;;39.33;26.77
68871;BME280;55906;52.278;6.808;2023-08-24T11:15:32;101126.31;;;39.32;27.17
68871;BME280;55906;52.278;6.808;2023-08-24T11:18:22;101134.53;;;38.71;26.49
68871;BME280;55906;52.278;6.808;2023-08-24T11:20:52;101136.03;;;38.22;26.63
68871;BME280;55906;52.278;6.808;2023-08-24T11:23:20;101143.97;;;38.57;26.30
68871;BME280;55906;52.278;6.808;2023-08-24T11:25:48;101152.72;;;38.62;26.34
68871;BME280;55906;52.278;6.808;2023-08-24T11:28:17;101152.91;;;38.70;26.18
68871;BME280;55906;52.278;6.808;2023-08-24T11:30:45;101152.91;;;38.91;26.20
68871;BME280;55906;52.278;6.808;2023-08-24T11:33:13;101157.28;;;38.73;26.26
68871;BME280;55906;52.278;6.808;2023-08-24T11:35:42;101147.66;;;38.26;26.30
68871;BME280;55906;52.278;6.808;2023-08-24T11:38:11;101136.72;;;38.03;26.37
68871;BME280;55906;52.278;6.808;2023-08-24T11:40:38;101139.47;;;38.03;27.17
68871;BME280;55906;52.278;6.808;2023-08-24T11:43:05;101151.28;;;37.38;27.25
68871;BME280;55906;52.278;6.808;2023-08-24T11:45:32;101150.16;;;36.96;27.66
68871;BME280;55906;52.278;6.808;2023-08-24T11:48:00;101138.50;;;36.35;28.64
68871;BME280;55906;52.278;6.808;2023-08-24T11:50:28;101136.22;;;36.05;29.35
68871;BME280;55906;52.278;6.808;2023-08-24T11:52:55;101150.28;;;36.01;29.15
68871;BME280;55906;52.278;6.808;2023-08-24T11:55:23;101157.03;;;35.47;29.88
68871;BME280;55906;52.278;6.808;2023-08-24T11:57:50;101159.88;;;35.20;30.92
68871;BME280;55906;52.278;6.808;2023-08-24T12:00:18;101159.50;;;34.61;31.41
68871;BME280;55906;52.278;6.808;2023-08-24T12:02:47;101154.81;;;34.24;31.55
68871;BME280;55906;52.278;6.808;2023-08-24T12:05:21;101166.38;;;33.88;32.74
68871;BME280;55906;52.278;6.808;2023-08-24T12:07:49;101170.28;;;33.55;33.33
68871;BME280;55906;52.278;6.808;2023-08-24T12:10:16;101169.16;;;33.45;33.80
68871;BME280;55906;52.278;6.808;2023-08-24T12:12:44;101166.03;;;33.37;33.56
68871;BME280;55906;52.278;6.808;2023-08-24T12:15:17;101164.66;;;33.16;34.44
68871;BME280;55906;52.278;6.808;2023-08-24T12:17:45;101149.47;;;32.97;34.78
68871;BME280;55906;52.278;6.808;2023-08-24T12:20:19;101143.63;;;32.89;35.65
68871;BME280;55906;52.278;6.808;2023-08-24T12:22:53;101138.19;;;32.59;36.17
68871;BME280;55906;52.278;6.808;2023-08-24T12:25:24;101123.13;;;32.68;35.74
68871;BME280;55906;52.278;6.808;2023-08-24T12:27:52;101122.63;;;32.31;35.70
68871;BME280;55906;52.278;6.808;2023-08-24T12:30:43;101118.69;;;32.21;36.44
68871;BME280;55906;52.278;6.808;2023-08-24T12:33:31;101105.91;;;32.07;36.88
68871;BME280;55906;52.278;6.808;2023-08-24T12:35:58;101094.69;;;31.98;36.44
68871;BME280;55906;52.278;6.808;2023-08-24T12:38:25;101102.47;;;32.04;36.57
68871;BME280;55906;52.278;6.808;2023-08-24T12:40:53;101099.59;;;31.91;37.10
68871;BME280;55906;52.278;6.808;2023-08-24T12:43:21;101106.06;;;32.04;36.95
68871;BME280;55906;52.278;6.808;2023-08-24T12:45:48;101100.84;;;31.86;37.24
68871;BME280;55906;52.278;6.808;2023-08-24T12:48:15;101100.69;;;31.73;36.66
68871;BME280;55906;52.278;6.808;2023-08-24T12:50:42;101091.66;;;31.72;36.63
68871;BME280;55906;52.278;6.808;2023-08-24T12:53:09;101094.19;;;31.75;36.97
68871;BME280;55906;52.278;6.808;2023-08-24T12:55:38;101088.47;;;31.64;37.25